createdAt,value
2018-07-17T00:00:28.677Z,14.90
2018-07-17T00:02:00.251Z,14.00
2018-07-17T00:03:31.922Z,14.30
2018-07-17T00:05:03.394Z,14.80
2018-07-17T00:06:34.967Z,12.60
2018-07-17T00:08:06.539Z,13.90
2018-07-17T00:09:38.260Z,13.30
2018-07-17T00:11:09.684Z,15.20
2018-07-17T00:12:41.308Z,12.10
2018-07-17T00:14:12.828Z,11.90
2018-07-17T00:15:44.400Z,12.80
2018-07-17T00:17:15.972Z,14.20
2018-07-17T00:18:47.544Z,13.10
2018-07-17T00:20:19.116Z,16.20
2018-07-17T00:21:50.689Z,14.00
2018-07-17T00:23:22.264Z,12.00
2018-07-17T00:24:53.833Z,11.50
2018-07-17T00:26:25.405Z,15.10
2018-07-17T00:27:57.077Z,15.00
2018-07-17T00:29:28.536Z,12.80
2018-07-17T00:31:00.108Z,13.20
2018-07-17T00:32:31.681Z,15.70
2018-07-17T00:34:03.352Z,12.40
2018-07-17T00:35:34.824Z,14.30
2018-07-17T00:37:06.396Z,11.90
2018-07-17T00:38:37.967Z,11.40
2018-07-17T00:40:09.547Z,12.90
2018-07-17T00:41:41.111Z,11.40
2018-07-17T00:43:12.684Z,12.10
2018-07-17T00:44:44.256Z,11.00
2018-07-17T00:46:15.928Z,12.10
2018-07-17T00:47:47.399Z,12.20
2018-07-17T00:49:18.971Z,13.30
2018-07-17T00:50:50.543Z,10.30
2018-07-17T00:52:22.115Z,10.20
2018-07-17T00:53:53.686Z,10.80
2018-07-17T00:55:25.258Z,10.70
2018-07-17T00:56:56.830Z,9.80
2018-07-17T00:58:28.401Z,11.80
2018-07-17T00:59:59.973Z,12.80
2018-07-17T01:01:31.546Z,11.50
2018-07-17T01:03:03.117Z,11.80
2018-07-17T01:04:34.788Z,13.60
2018-07-17T01:06:06.263Z,12.00
2018-07-17T01:07:37.832Z,12.10
2018-07-17T01:09:09.403Z,14.10
2018-07-17T01:10:40.976Z,13.90
2018-07-17T01:12:12.546Z,13.40
2018-07-17T01:13:44.121Z,14.00
2018-07-17T01:15:15.689Z,12.40
2018-07-17T01:16:47.260Z,14.50
2018-07-17T01:18:18.832Z,12.60
2018-07-17T01:19:50.403Z,12.30
2018-07-17T01:21:21.974Z,13.10
2018-07-17T01:22:53.646Z,13.00
2018-07-17T01:24:25.117Z,13.10
2018-07-17T01:25:56.689Z,14.90
2018-07-17T01:27:28.262Z,12.60
2018-07-17T01:28:59.832Z,12.90
2018-07-17T01:30:31.404Z,17.30
2018-07-17T01:32:02.975Z,16.90
2018-07-17T01:35:06.120Z,13.10
2018-07-17T01:36:37.689Z,16.30
2018-07-17T01:38:09.261Z,10.90
2018-07-17T01:39:40.832Z,11.50
2018-07-17T01:41:12.504Z,15.40
2018-07-17T01:42:43.975Z,16.70
2018-07-17T01:44:15.550Z,14.20
2018-07-17T01:45:47.118Z,13.70
2018-07-17T01:47:18.775Z,12.80
2018-07-17T01:48:50.264Z,17.10
2018-07-17T01:50:21.831Z,17.80
2018-07-17T01:51:53.403Z,15.20
2018-07-17T01:53:24.975Z,15.90
2018-07-17T01:54:56.546Z,17.60
2018-07-17T01:56:28.120Z,18.80
2018-07-17T01:57:59.687Z,19.80
2018-07-17T01:59:31.358Z,17.80
2018-07-17T02:01:02.831Z,13.00
2018-07-17T02:02:34.401Z,18.50
2018-07-17T02:04:05.972Z,17.80
2018-07-17T02:05:37.643Z,17.00
2018-07-17T02:07:09.114Z,21.00
2018-07-17T02:08:40.738Z,20.30
2018-07-17T02:10:12.262Z,20.10
2018-07-17T02:11:43.827Z,19.40
2018-07-17T02:13:15.397Z,18.00
2018-07-17T02:14:46.968Z,18.80
2018-07-17T02:16:18.540Z,18.80
2018-07-17T02:17:50.210Z,18.50
2018-07-17T02:19:21.680Z,20.10
2018-07-17T02:20:53.251Z,17.10
2018-07-17T02:22:24.824Z,19.10
2018-07-17T02:23:56.395Z,19.30
2018-07-17T02:25:27.963Z,17.70
2018-07-17T02:26:59.535Z,19.40
2018-07-17T02:28:31.105Z,19.20
2018-07-17T02:30:02.694Z,16.50
2018-07-17T02:31:34.283Z,19.60
2018-07-17T02:33:05.818Z,18.40
2018-07-17T02:34:37.388Z,16.20
2018-07-17T02:36:09.211Z,16.00
2018-07-17T02:37:40.529Z,16.40
2018-07-17T02:39:12.100Z,16.60
2018-07-17T02:40:43.671Z,20.30
2018-07-17T02:42:15.253Z,14.90
2018-07-17T02:43:46.843Z,13.80
2018-07-17T02:45:18.382Z,17.80
2018-07-17T02:46:49.958Z,15.10
2018-07-17T02:48:21.522Z,15.20
2018-07-17T02:49:53.094Z,19.30
2018-07-17T02:51:24.664Z,16.90
2018-07-17T02:52:56.234Z,16.80
2018-07-17T02:54:27.904Z,16.90
2018-07-17T02:55:59.615Z,17.40
2018-07-17T02:57:30.950Z,16.20
2018-07-17T02:59:02.519Z,19.70
2018-07-17T03:00:34.086Z,18.00
2018-07-17T03:02:05.657Z,16.30
2018-07-17T03:03:37.226Z,17.00
2018-07-17T03:05:08.804Z,18.20
2018-07-17T03:06:40.466Z,19.40
2018-07-17T03:08:11.936Z,19.90
2018-07-17T03:09:43.509Z,18.90
2018-07-17T03:11:15.077Z,22.70
2018-07-17T03:12:46.749Z,28.60
2018-07-17T03:14:18.216Z,20.90
2018-07-17T03:15:49.788Z,19.60
2018-07-17T03:17:21.357Z,18.40
2018-07-17T03:18:52.928Z,22.40
2018-07-17T03:20:24.498Z,25.30
2018-07-17T03:21:56.071Z,20.60
2018-07-17T03:23:27.638Z,22.50
2018-07-17T03:24:59.209Z,20.40
2018-07-17T03:26:30.779Z,24.90
2018-07-17T03:28:02.349Z,18.80
2018-07-17T03:29:33.919Z,22.20
2018-07-17T03:31:05.890Z,25.70
2018-07-17T03:32:37.060Z,22.60
2018-07-17T03:34:08.630Z,17.80
2018-07-17T03:35:40.200Z,19.60
2018-07-17T03:37:11.870Z,23.40
2018-07-17T03:38:43.345Z,20.70
2018-07-17T03:40:14.910Z,26.10
2018-07-17T03:41:46.480Z,24.70
2018-07-17T03:43:18.052Z,25.90
2018-07-17T03:44:49.621Z,25.00
2018-07-17T03:46:21.191Z,24.70
2018-07-17T03:47:52.760Z,26.20
2018-07-17T03:49:24.430Z,26.80
2018-07-17T03:50:55.901Z,25.10
2018-07-17T03:52:27.471Z,27.40
2018-07-17T03:53:59.044Z,28.30
2018-07-17T03:55:30.610Z,30.90
2018-07-17T03:57:02.181Z,32.90
2018-07-17T03:58:33.794Z,32.60
2018-07-17T04:00:05.321Z,26.70
2018-07-17T04:01:36.891Z,26.70
2018-07-17T04:03:08.461Z,27.80
2018-07-17T04:04:40.032Z,29.80
2018-07-17T04:06:11.602Z,26.90
2018-07-17T04:07:43.372Z,29.60
2018-07-17T04:09:14.742Z,26.00
2018-07-17T04:10:46.312Z,26.40
2018-07-17T04:12:17.884Z,27.80
2018-07-17T04:13:49.453Z,27.20
2018-07-17T04:15:21.022Z,30.00
2018-07-17T04:16:52.594Z,27.00
2018-07-17T04:18:24.162Z,26.90
2018-07-17T04:19:55.733Z,33.80
2018-07-17T04:21:27.303Z,28.30
2018-07-17T04:22:58.874Z,28.40
2018-07-17T04:24:30.443Z,29.40
2018-07-17T04:26:02.115Z,24.60
2018-07-17T04:27:33.584Z,26.60
2018-07-17T04:29:05.154Z,27.90
2018-07-17T04:30:36.725Z,25.80
2018-07-17T04:32:08.545Z,28.10
2018-07-17T04:33:39.864Z,24.60
2018-07-17T04:35:11.435Z,25.00
2018-07-17T04:36:43.005Z,27.70
2018-07-17T04:38:14.724Z,24.40
2018-07-17T04:39:46.146Z,25.40
2018-07-17T04:41:17.718Z,25.20
2018-07-17T04:42:49.285Z,27.10
2018-07-17T04:44:20.956Z,25.00
2018-07-17T04:45:52.426Z,25.60
2018-07-17T04:47:23.999Z,25.40
2018-07-17T04:48:55.566Z,29.80
2018-07-17T04:50:27.136Z,28.40
2018-07-17T04:51:58.706Z,30.80
2018-07-17T04:53:30.280Z,28.30
2018-07-17T04:55:01.848Z,28.80
2018-07-17T04:56:33.418Z,26.60
2018-07-17T04:58:04.986Z,26.60
2018-07-17T04:59:36.556Z,25.70
2018-07-17T05:01:08.126Z,27.30
2018-07-17T05:02:40.047Z,38.00
2018-07-17T05:04:11.265Z,36.60
2018-07-17T05:05:42.835Z,39.50
2018-07-17T05:07:14.405Z,34.00
2018-07-17T05:08:46.077Z,28.70
2018-07-17T05:10:17.544Z,31.10
2018-07-17T05:11:49.114Z,32.90
2018-07-17T05:13:20.685Z,26.60
2018-07-17T05:14:52.254Z,27.90
2018-07-17T05:16:23.894Z,28.00
2018-07-17T05:17:55.393Z,41.20
2018-07-17T05:19:26.961Z,37.90
2018-07-17T05:20:58.632Z,37.90
2018-07-17T05:22:30.100Z,27.70
2018-07-17T05:24:01.672Z,27.00
2018-07-17T05:25:33.240Z,33.80
2018-07-17T05:27:04.809Z,27.30
2018-07-17T05:28:36.378Z,43.30
2018-07-17T05:30:07.948Z,37.70
2018-07-17T05:31:39.518Z,30.20
2018-07-17T05:33:11.337Z,38.30
2018-07-17T05:34:42.655Z,40.80
2018-07-17T05:36:14.225Z,38.10
2018-07-17T05:37:45.795Z,41.80
2018-07-17T05:39:17.614Z,39.00
2018-07-17T05:40:48.934Z,35.90
2018-07-17T05:42:20.502Z,30.30
2018-07-17T05:43:52.072Z,39.20
2018-07-17T05:45:23.641Z,31.60
2018-07-17T05:46:55.215Z,35.60
2018-07-17T05:48:26.780Z,27.60
2018-07-17T05:49:58.349Z,27.70
2018-07-17T05:51:29.919Z,37.10
2018-07-17T05:53:01.490Z,44.50
2018-07-17T05:54:33.058Z,52.50
2018-07-17T05:56:04.627Z,43.40
2018-07-17T05:57:36.296Z,64.10
2018-07-17T05:59:07.768Z,61.60
2018-07-17T06:00:39.337Z,48.50
2018-07-17T06:02:10.905Z,53.70
2018-07-17T06:03:42.724Z,55.60
2018-07-17T06:05:14.042Z,47.70
2018-07-17T06:06:45.611Z,51.80
2018-07-17T06:08:17.182Z,53.30
2018-07-17T06:09:48.849Z,46.90
2018-07-17T06:11:20.318Z,48.60
2018-07-17T06:12:51.889Z,47.40
2018-07-17T06:14:23.456Z,43.80
2018-07-17T06:15:55.126Z,43.00
2018-07-17T06:17:26.596Z,40.30
2018-07-17T06:18:58.215Z,47.40
2018-07-17T06:20:29.734Z,40.30
2018-07-17T06:22:01.306Z,39.60
2018-07-17T06:23:32.871Z,42.50
2018-07-17T06:25:04.443Z,38.40
2018-07-17T06:26:36.009Z,37.70
2018-07-17T06:28:07.578Z,34.30
2018-07-17T06:29:39.146Z,56.30
2018-07-17T06:31:10.716Z,43.50
2018-07-17T06:32:42.284Z,53.30
2018-07-17T06:34:14.203Z,69.40
2018-07-17T06:35:45.421Z,58.00
2018-07-17T06:37:16.990Z,57.30
2018-07-17T06:38:48.592Z,57.90
2018-07-17T06:40:20.227Z,61.10
2018-07-17T06:41:51.696Z,60.60
2018-07-17T06:43:23.264Z,70.10
2018-07-17T06:44:54.836Z,68.00
2018-07-17T06:46:26.402Z,58.80
2018-07-17T06:47:57.972Z,53.50
2018-07-17T06:49:29.540Z,55.40
2018-07-17T06:51:01.111Z,64.20
2018-07-17T06:52:32.778Z,62.10
2018-07-17T06:54:04.247Z,58.50
2018-07-17T06:55:35.816Z,50.50
2018-07-17T06:57:07.385Z,51.60
2018-07-17T06:58:38.953Z,43.90
2018-07-17T07:00:10.541Z,55.20
2018-07-17T07:01:42.091Z,63.30
2018-07-17T07:03:13.660Z,77.80
2018-07-17T07:04:45.228Z,97.30
2018-07-17T07:06:16.796Z,68.90
2018-07-17T07:07:48.366Z,77.50
2018-07-17T07:09:19.933Z,93.00
2018-07-17T07:10:52.504Z,77.70
2018-07-17T07:12:23.070Z,82.30
2018-07-17T07:13:54.639Z,97.60
2018-07-17T07:15:26.208Z,79.40
2018-07-17T07:16:57.776Z,126.40
2018-07-17T07:18:29.345Z,103.80
2018-07-17T07:20:00.914Z,116.10
2018-07-17T07:21:32.482Z,105.20
2018-07-17T07:23:04.051Z,98.30
2018-07-17T07:24:35.620Z,87.10
2018-07-17T07:26:07.189Z,80.80
2018-07-17T07:27:38.757Z,74.20
2018-07-17T07:29:10.430Z,83.10
2018-07-17T07:30:41.896Z,64.30
2018-07-17T07:32:13.464Z,56.50
2018-07-17T07:33:45.032Z,60.70
2018-07-17T07:35:16.850Z,59.50
2018-07-17T07:36:48.169Z,128.90
2018-07-17T07:38:19.739Z,108.40
2018-07-17T07:39:51.306Z,67.30
2018-07-17T07:41:22.975Z,69.50
2018-07-17T07:42:54.508Z,63.40
2018-07-17T07:44:26.012Z,61.50
2018-07-17T07:45:57.580Z,78.00
2018-07-17T07:47:29.251Z,114.90
2018-07-17T07:49:00.717Z,114.10
2018-07-17T07:50:32.288Z,84.00
2018-07-17T07:52:03.855Z,70.60
2018-07-17T07:53:35.423Z,56.70
2018-07-17T07:55:06.991Z,65.80
2018-07-17T07:56:38.559Z,69.00
2018-07-17T07:58:10.129Z,72.80
2018-07-17T07:59:41.697Z,103.10
2018-07-17T08:01:13.265Z,114.00
2018-07-17T08:02:44.834Z,98.30
2018-07-17T08:04:16.402Z,109.70
2018-07-17T08:05:48.372Z,145.50
2018-07-17T08:07:19.539Z,140.80
2018-07-17T08:08:51.108Z,146.30
2018-07-17T08:10:22.677Z,155.00
2018-07-17T08:11:54.415Z,143.80
2018-07-17T08:13:25.813Z,116.10
2018-07-17T08:14:57.381Z,85.10
2018-07-17T08:16:28.974Z,106.90
2018-07-17T08:18:00.518Z,100.20
2018-07-17T08:19:32.087Z,91.70
2018-07-17T08:21:03.656Z,109.80
2018-07-17T08:22:35.224Z,133.50
2018-07-17T08:24:06.892Z,146.20
2018-07-17T08:25:38.404Z,154.60
2018-07-17T08:27:09.931Z,140.40
2018-07-17T08:28:41.588Z,144.00
2018-07-17T08:30:13.066Z,128.40
2018-07-17T08:31:44.633Z,145.80
2018-07-17T08:33:16.204Z,148.20
2018-07-17T08:34:47.769Z,123.20
2018-07-17T08:36:19.338Z,95.60
2018-07-17T08:37:50.909Z,99.70
2018-07-17T08:39:22.475Z,117.30
2018-07-17T08:40:54.045Z,113.00
2018-07-17T08:42:25.812Z,145.00
2018-07-17T08:43:57.180Z,157.70
2018-07-17T08:45:28.748Z,146.40
2018-07-17T08:47:00.318Z,141.70
2018-07-17T08:48:31.884Z,131.30
2018-07-17T08:50:03.452Z,144.80
2018-07-17T08:51:35.024Z,129.50
2018-07-17T08:53:06.589Z,129.30
2018-07-17T08:54:38.267Z,110.60
2018-07-17T08:56:09.724Z,104.80
2018-07-17T08:57:41.292Z,106.90
2018-07-17T08:59:12.861Z,98.30
2018-07-17T09:00:44.529Z,109.00
2018-07-17T09:02:16.005Z,98.60
2018-07-17T09:03:47.565Z,99.60
2018-07-17T09:05:19.133Z,97.60
2018-07-17T09:06:50.952Z,108.50
2018-07-17T09:08:22.270Z,125.90
2018-07-17T09:09:53.837Z,126.30
2018-07-17T09:11:25.406Z,112.50
2018-07-17T09:12:57.115Z,108.60
2018-07-17T09:14:28.544Z,122.20
2018-07-17T09:16:00.111Z,135.30
2018-07-17T09:17:31.678Z,130.20
2018-07-17T09:19:03.451Z,124.70
2018-07-17T09:20:34.817Z,118.80
2018-07-17T09:22:06.386Z,124.00
2018-07-17T09:23:37.951Z,132.90
2018-07-17T09:25:09.527Z,130.90
2018-07-17T09:26:41.338Z,134.30
2018-07-17T09:28:12.738Z,161.80
2018-07-17T09:29:44.222Z,168.20
2018-07-17T09:31:15.856Z,159.60
2018-07-17T09:32:47.363Z,176.80
2018-07-17T09:34:18.927Z,153.90
2018-07-17T09:35:50.494Z,180.20
2018-07-17T09:37:22.416Z,184.80
2018-07-17T09:38:53.665Z,187.80
2018-07-17T09:40:25.199Z,190.20
2018-07-17T09:41:56.766Z,185.30
2018-07-17T09:43:28.437Z,168.10
2018-07-17T09:44:59.902Z,172.00
2018-07-17T09:46:31.469Z,138.10
2018-07-17T09:48:03.038Z,143.80
2018-07-17T09:49:34.656Z,138.80
2018-07-17T09:51:06.323Z,146.50
2018-07-17T09:52:37.741Z,153.60
2018-07-17T09:55:41.107Z,185.40
2018-07-17T09:57:12.445Z,211.80
2018-07-17T09:58:44.209Z,225.50
2018-07-17T10:00:15.581Z,168.90
2018-07-17T10:01:47.150Z,160.20
2018-07-17T10:03:19.039Z,143.50
2018-07-17T10:04:50.387Z,139.90
2018-07-17T10:06:21.967Z,123.20
2018-07-17T10:07:53.670Z,126.00
2018-07-17T10:09:25.059Z,115.80
2018-07-17T10:10:56.559Z,120.30
2018-07-17T10:12:28.126Z,153.60
2018-07-17T10:14:00.577Z,187.40
2018-07-17T10:15:31.270Z,190.60
2018-07-17T10:18:34.405Z,135.50
2018-07-17T10:20:06.003Z,136.10
2018-07-17T10:21:37.650Z,118.50
2018-07-17T10:23:09.120Z,107.40
2018-07-17T10:24:40.886Z,94.30
2018-07-17T10:26:12.296Z,90.60
2018-07-17T10:27:43.825Z,103.30
2018-07-17T10:29:15.700Z,108.60
2018-07-17T10:30:46.967Z,93.00
2018-07-17T10:32:18.841Z,102.50
2018-07-17T10:33:50.213Z,99.00
2018-07-17T10:35:21.710Z,86.00
2018-07-17T10:38:24.825Z,109.70
2018-07-17T10:39:56.417Z,97.70
2018-07-17T10:41:27.969Z,77.60
2018-07-17T10:42:59.543Z,77.80
2018-07-17T10:44:31.344Z,76.10
2018-07-17T10:46:02.947Z,70.60
2018-07-17T10:47:34.297Z,60.60
2018-07-17T10:50:37.578Z,60.90
2018-07-17T10:52:10.136Z,61.10
2018-07-17T10:53:40.609Z,61.60
2018-07-17T10:55:12.139Z,59.30
2018-07-17T10:58:15.289Z,53.90
2018-07-17T10:59:46.861Z,52.90
2018-07-17T11:01:18.436Z,46.50
2018-07-17T11:04:21.891Z,53.30
2018-07-17T11:05:53.348Z,54.00
2018-07-17T11:07:24.742Z,51.80
2018-07-17T11:08:56.320Z,47.40
2018-07-17T11:10:28.063Z,49.10
2018-07-17T11:13:31.053Z,44.20
2018-07-17T11:15:03.162Z,46.60
2018-07-17T11:16:35.017Z,45.30
2018-07-17T11:18:05.985Z,44.30
2018-07-17T11:19:37.810Z,45.40
2018-07-17T11:21:08.944Z,46.30
2018-07-17T11:22:40.523Z,44.30
2018-07-17T11:24:12.103Z,42.20
2018-07-17T11:25:43.682Z,39.10
2018-07-17T11:27:15.261Z,40.00
2018-07-17T11:30:18.520Z,37.80
2018-07-17T11:33:21.680Z,40.00
2018-07-17T11:34:53.697Z,35.70
2018-07-17T11:36:25.044Z,35.80
2018-07-17T11:37:56.324Z,34.70
2018-07-17T11:39:27.901Z,32.00
2018-07-17T11:40:59.482Z,34.70
2018-07-17T11:44:02.846Z,33.10
2018-07-17T11:45:34.226Z,34.40
2018-07-17T11:47:05.807Z,31.20
2018-07-17T11:48:37.439Z,30.90
2018-07-17T11:50:09.219Z,32.70
2018-07-17T11:53:12.182Z,31.10
2018-07-17T11:57:46.886Z,29.00
2018-07-17T11:59:19.124Z,34.50
2018-07-17T12:00:50.038Z,30.30
2018-07-17T12:03:53.200Z,30.20
2018-07-17T12:05:24.809Z,30.60
2018-07-17T12:06:56.369Z,30.90
2018-07-17T12:08:27.951Z,29.10
2018-07-17T12:09:59.640Z,31.30
2018-07-17T12:11:31.109Z,29.00
2018-07-17T12:14:34.273Z,29.60
2018-07-17T12:16:05.856Z,28.30
2018-07-17T12:17:37.438Z,29.30
2018-07-17T12:20:40.605Z,29.20
2018-07-17T12:22:12.286Z,29.70
2018-07-17T12:23:43.768Z,29.90
2018-07-17T12:25:15.351Z,30.50
2018-07-17T12:26:46.933Z,32.10
2018-07-17T12:28:18.617Z,35.10
2018-07-17T12:29:50.144Z,32.50
2018-07-17T12:31:21.681Z,36.60
2018-07-17T12:34:24.846Z,32.10
2018-07-17T12:35:56.733Z,34.20
2018-07-17T12:37:28.011Z,38.40
2018-07-17T12:38:59.594Z,36.80
2018-07-17T12:40:31.176Z,33.80
2018-07-17T12:43:34.342Z,38.40
2018-07-17T12:45:05.925Z,36.30
2018-07-17T12:46:37.608Z,37.70
2018-07-17T12:48:09.091Z,30.00
2018-07-17T12:51:12.256Z,31.90
2018-07-17T12:52:43.839Z,33.80
2018-07-17T12:54:15.425Z,37.10
2018-07-17T12:55:47.005Z,36.40
2018-07-17T12:57:18.590Z,34.30
2018-07-17T12:58:50.171Z,32.40
2018-07-17T13:00:21.880Z,33.70
2018-07-17T13:01:53.337Z,33.10
2018-07-17T13:03:24.917Z,32.00
2018-07-17T13:04:56.601Z,33.40
2018-07-17T13:07:59.664Z,29.40
2018-07-17T13:11:04.704Z,27.50
2018-07-17T13:12:34.409Z,30.00
2018-07-17T13:14:05.991Z,30.30
2018-07-17T13:15:37.614Z,31.70
2018-07-17T13:17:09.157Z,31.40
2018-07-17T13:18:40.736Z,28.60
2018-07-17T13:20:12.317Z,28.70
2018-07-17T13:21:43.899Z,28.40
2018-07-17T13:23:15.581Z,28.50
2018-07-17T13:26:19.174Z,29.40
2018-07-17T13:27:50.225Z,27.70
2018-07-17T13:29:21.806Z,25.00
2018-07-17T13:30:53.388Z,26.90
2018-07-17T13:33:56.556Z,24.00
2018-07-17T13:35:28.134Z,22.90
2018-07-17T13:36:59.717Z,22.90
2018-07-17T13:41:08.132Z,19.90
2018-07-17T13:41:46.334Z,19.70
2018-07-17T13:43:17.916Z,18.90
2018-07-17T13:44:49.584Z,19.10
2018-07-17T13:46:21.147Z,20.30
2018-07-17T13:47:52.665Z,18.80
2018-07-17T13:49:24.469Z,17.90
2018-07-17T13:50:55.874Z,19.20
2018-07-17T13:52:27.350Z,18.90
2018-07-17T13:53:59.139Z,18.60
2018-07-17T13:55:30.679Z,18.70
2018-07-17T13:57:02.126Z,18.90
2018-07-17T13:58:33.783Z,24.10
2018-07-17T14:01:37.380Z,20.80
2018-07-17T14:03:08.430Z,20.20
2018-07-17T14:04:40.014Z,18.80
2018-07-17T14:06:11.596Z,19.30
2018-07-17T14:10:46.347Z,17.40
2018-07-17T14:12:17.955Z,16.90
2018-07-17T14:13:49.514Z,16.70
2018-07-17T14:15:21.098Z,16.20
2018-07-17T14:16:52.781Z,14.00
2018-07-17T14:18:24.269Z,15.40
2018-07-17T14:19:55.847Z,15.50
2018-07-17T14:22:59.016Z,13.70
2018-07-17T14:24:30.604Z,13.50
2018-07-17T14:26:02.181Z,13.80
2018-07-17T14:27:34.297Z,14.00
2018-07-17T14:29:05.356Z,18.20
2018-07-17T14:30:36.951Z,15.50
2018-07-17T14:32:08.518Z,15.90
2018-07-17T14:33:40.099Z,18.00
2018-07-17T14:38:14.960Z,12.40
2018-07-17T14:39:46.434Z,14.70
2018-07-17T14:42:49.602Z,13.40
2018-07-17T14:44:21.185Z,14.40
2018-07-17T14:45:52.770Z,12.10
2018-07-17T14:47:24.355Z,11.60
2018-07-17T14:48:55.938Z,12.90
2018-07-17T14:50:27.540Z,11.90
2018-07-17T14:51:59.208Z,10.50
2018-07-17T14:53:30.691Z,18.20
2018-07-17T14:55:02.280Z,8.40
2018-07-17T14:56:33.960Z,8.90
2018-07-17T14:58:05.447Z,9.20
2018-07-17T15:01:08.610Z,11.10
2018-07-17T15:02:40.294Z,10.70
2018-07-17T15:04:11.778Z,7.50
2018-07-17T15:05:43.566Z,9.90
2018-07-17T15:07:14.949Z,7.00
2018-07-17T15:08:46.530Z,6.60
2018-07-17T15:10:18.117Z,6.80
2018-07-17T15:11:49.699Z,6.10
2018-07-17T15:14:52.967Z,6.50
2018-07-17T15:16:24.453Z,8.40
2018-07-17T15:17:56.037Z,6.10
2018-07-17T15:19:27.619Z,5.60
2018-07-17T15:20:59.204Z,5.80
2018-07-17T15:22:31.439Z,6.10
2018-07-17T15:24:02.374Z,6.20
2018-07-17T15:25:33.959Z,6.60
2018-07-17T15:27:05.543Z,9.10
2018-07-17T15:28:37.429Z,8.10
2018-07-17T15:30:08.710Z,8.40
2018-07-17T15:31:40.293Z,6.80
2018-07-17T15:34:43.863Z,7.00
2018-07-17T15:36:15.047Z,7.70
2018-07-17T15:37:47.366Z,7.50
2018-07-17T15:39:18.216Z,7.90
2018-07-17T15:40:49.799Z,10.00
2018-07-17T15:43:53.270Z,7.90
2018-07-17T15:45:24.560Z,8.00
2018-07-17T15:46:56.146Z,7.70
2018-07-17T15:49:59.507Z,9.10
2018-07-17T15:51:30.893Z,8.50
2018-07-17T15:53:02.571Z,8.70
2018-07-17T15:54:34.055Z,9.20
2018-07-17T15:56:05.643Z,9.80
2018-07-17T15:57:37.221Z,10.80
2018-07-17T15:59:08.805Z,9.20
2018-07-17T16:00:40.390Z,10.10
2018-07-17T16:02:11.976Z,8.60
2018-07-17T16:03:43.557Z,8.20
2018-07-17T16:05:15.242Z,8.50
2018-07-17T16:06:46.729Z,10.30
2018-07-17T16:08:18.311Z,9.30
2018-07-17T16:09:49.894Z,11.90
2018-07-17T16:11:21.578Z,9.90
2018-07-17T16:12:53.063Z,10.30
2018-07-17T16:14:25.407Z,9.80
2018-07-17T16:15:56.231Z,10.70
2018-07-17T16:17:27.816Z,12.90
2018-07-17T16:18:59.401Z,10.10
2018-07-17T16:20:30.988Z,10.20
2018-07-17T16:22:02.571Z,9.30
2018-07-17T16:23:34.156Z,10.60
2018-07-17T16:25:05.739Z,9.80
2018-07-17T16:26:37.453Z,10.60
2018-07-17T16:28:08.913Z,10.20
2018-07-17T16:29:40.593Z,11.30
2018-07-17T16:31:12.078Z,9.10
2018-07-17T16:32:43.667Z,12.10
2018-07-17T16:34:15.246Z,9.30
2018-07-17T16:35:46.931Z,11.10
2018-07-17T16:37:18.479Z,9.50
2018-07-17T16:38:50.254Z,9.90
2018-07-17T16:40:21.584Z,11.20
2018-07-17T16:41:53.173Z,9.60
2018-07-17T16:43:25.057Z,9.20
2018-07-17T16:44:56.338Z,9.20
2018-07-17T16:46:28.126Z,9.10
2018-07-17T16:47:59.704Z,9.20
2018-07-17T16:49:31.574Z,9.60
2018-07-17T16:51:02.985Z,8.50
2018-07-17T16:52:34.259Z,9.40
2018-07-17T16:54:06.286Z,9.90
2018-07-17T16:57:09.214Z,10.20
2018-07-17T16:58:40.599Z,9.30
2018-07-17T17:00:12.385Z,10.30
2018-07-17T17:01:43.769Z,9.90
2018-07-17T17:03:15.497Z,11.40
2018-07-17T17:04:46.947Z,9.80
2018-07-17T17:06:19.188Z,11.00
2018-07-17T17:07:50.107Z,10.10
2018-07-17T17:09:21.692Z,9.50
2018-07-17T17:10:53.660Z,10.00
2018-07-17T17:12:25.275Z,9.50
2018-07-17T17:13:56.447Z,9.40
2018-07-17T17:15:28.036Z,10.40
2018-07-17T17:16:59.614Z,10.10
2018-07-17T17:18:31.199Z,10.80
2018-07-17T17:21:34.368Z,9.20
2018-07-17T17:24:37.719Z,10.20
2018-07-17T17:26:09.120Z,9.00
2018-07-17T17:27:40.908Z,9.70
2018-07-17T17:29:12.351Z,10.70
2018-07-17T17:30:43.883Z,8.70
2018-07-17T17:32:15.458Z,10.00
2018-07-17T17:35:18.626Z,9.70
2018-07-17T17:36:50.441Z,9.40
2018-07-17T17:38:21.798Z,8.90
2018-07-17T17:39:53.442Z,8.10
2018-07-17T17:41:25.485Z,8.60
2018-07-17T17:42:57.142Z,9.40
2018-07-17T17:44:28.132Z,8.90
2018-07-17T17:45:59.724Z,8.90
2018-07-17T17:47:31.337Z,9.80
2018-07-17T17:49:02.883Z,9.30
2018-07-17T17:50:34.465Z,9.40
2018-07-17T17:52:06.048Z,10.00
2018-07-17T17:53:37.633Z,9.90
2018-07-17T17:55:09.224Z,9.90
2018-07-17T17:56:41.381Z,10.20
2018-07-17T17:58:12.383Z,9.10
2018-07-17T17:59:44.069Z,8.70
2018-07-17T18:01:15.661Z,8.70
2018-07-17T18:02:47.135Z,9.00
2018-07-17T18:04:19.251Z,8.80
2018-07-17T18:05:50.351Z,9.00
2018-07-17T18:07:21.888Z,8.30
2018-07-17T18:08:53.470Z,9.70
2018-07-17T18:11:56.642Z,9.10
2018-07-17T18:13:28.226Z,11.20
2018-07-17T18:16:31.412Z,10.00
2018-07-17T18:18:02.972Z,10.00
2018-07-17T18:19:34.734Z,13.00
2018-07-17T18:21:06.138Z,11.40
2018-07-17T18:22:37.759Z,10.40
2018-07-17T18:24:09.347Z,10.50
2018-07-17T18:25:40.890Z,10.30
2018-07-17T18:27:12.471Z,10.30
2018-07-17T18:28:44.079Z,11.20
2018-07-17T18:30:15.638Z,10.10
2018-07-17T18:31:47.222Z,9.70
2018-07-17T18:33:19.107Z,10.80
2018-07-17T18:34:50.418Z,9.80
2018-07-17T18:36:21.970Z,10.00
2018-07-17T18:37:54.007Z,10.30
2018-07-17T18:39:25.136Z,10.10
2018-07-17T18:40:56.728Z,10.60
2018-07-17T18:42:28.302Z,9.80
2018-07-17T18:43:59.885Z,9.50
2018-07-17T18:45:31.469Z,9.00
2018-07-17T18:48:34.638Z,9.20
2018-07-17T18:50:12.865Z,9.80
2018-07-17T18:51:37.820Z,9.90
2018-07-17T18:53:09.384Z,8.90
2018-07-17T18:54:40.974Z,9.30
2018-07-17T18:56:12.701Z,10.30
2018-07-17T18:57:44.134Z,10.20
2018-07-17T18:59:15.721Z,12.30
2018-07-17T19:00:47.300Z,10.10
2018-07-17T19:02:18.882Z,10.70
2018-07-17T19:03:50.465Z,10.60
2018-07-17T19:05:22.052Z,11.70
2018-07-17T19:06:53.631Z,11.10
2018-07-17T19:08:25.212Z,15.50
2018-07-17T19:09:56.799Z,16.10
2018-07-17T19:11:28.400Z,15.40
2018-07-17T19:12:59.973Z,16.80
2018-07-17T19:14:31.643Z,17.70
2018-07-17T19:16:03.872Z,17.30
2018-07-17T19:17:35.052Z,18.20
2018-07-17T19:19:06.610Z,17.40
2018-07-17T19:20:38.330Z,17.90
2018-07-17T19:22:09.453Z,19.20
2018-07-17T19:23:41.036Z,20.30
2018-07-17T19:25:12.649Z,21.00
2018-07-17T19:26:44.248Z,20.50
2018-07-17T19:28:15.782Z,20.10
2018-07-17T19:29:47.361Z,23.20
2018-07-17T19:31:18.944Z,20.80
2018-07-17T19:32:50.623Z,22.10
2018-07-17T19:34:22.110Z,24.80
2018-07-17T19:35:53.698Z,26.80
2018-07-17T19:37:25.266Z,22.20
2018-07-17T19:38:56.853Z,21.80
2018-07-17T19:40:28.428Z,22.30
2018-07-17T19:42:00.035Z,20.00
2018-07-17T19:43:31.597Z,19.50
2018-07-17T19:45:03.167Z,21.40
2018-07-17T19:46:34.747Z,22.10
2018-07-17T19:48:06.328Z,19.10
2018-07-17T19:49:37.906Z,20.50
2018-07-17T19:51:09.587Z,19.70
2018-07-17T19:52:41.069Z,18.90
2018-07-17T19:54:12.646Z,18.10
2018-07-17T19:55:44.228Z,17.40
2018-07-17T19:57:15.835Z,17.60
2018-07-17T19:58:47.383Z,22.20
2018-07-17T20:00:18.992Z,19.90
2018-07-17T20:01:50.544Z,16.50
2018-07-17T20:03:22.119Z,15.80
2018-07-17T20:04:53.698Z,19.70
2018-07-17T20:06:25.479Z,17.80
2018-07-17T20:07:56.861Z,18.30
2018-07-17T20:09:28.556Z,18.60
2018-07-17T20:11:00.014Z,18.70
2018-07-17T20:12:31.598Z,17.80
2018-07-17T20:14:03.166Z,19.20
2018-07-17T20:15:34.744Z,18.40
2018-07-17T20:17:06.321Z,19.00
2018-07-17T20:18:37.901Z,19.50
2018-07-17T20:20:09.477Z,19.60
2018-07-17T20:21:41.053Z,19.90
2018-07-17T20:23:12.638Z,20.00
2018-07-17T20:24:44.207Z,19.70
2018-07-17T20:26:15.794Z,25.00
2018-07-17T20:27:47.462Z,21.00
2018-07-17T20:29:18.941Z,21.30
2018-07-17T20:30:50.514Z,19.30
2018-07-17T20:32:22.093Z,21.40
2018-07-17T20:33:53.667Z,23.60
2018-07-17T20:35:25.243Z,23.20
2018-07-17T20:36:56.819Z,22.20
2018-07-17T20:38:28.394Z,21.30
2018-07-17T20:39:59.970Z,22.70
2018-07-17T20:41:31.545Z,28.00
2018-07-17T20:43:03.121Z,25.50
2018-07-17T20:44:34.697Z,24.70
2018-07-17T20:46:06.375Z,24.80